sensor_id;sensor_type;location;lat;lon;timestamp;temperature;humidity
76211;DHT22;65003;49.518;11.280;2023-05-07T00:00:12;13.90;86.50
76211;DHT22;65003;49.518;11.280;2023-05-07T00:02:38;13.80;87.10
76211;DHT22;65003;49.518;11.280;2023-05-07T00:05:06;13.60;87.50
76211;DHT22;65003;49.518;11.280;2023-05-07T00:07:32;13.50;88.30
76211;DHT22;65003;49.518;11.280;2023-05-07T00:09:59;13.40;88.60
76211;DHT22;65003;49.518;11.280;2023-05-07T00:12:25;13.30;89.00
76211;DHT22;65003;49.518;11.280;2023-05-07T00:14:52;13.30;89.00
76211;DHT22;65003;49.518;11.280;2023-05-07T00:17:19;13.30;89.30
76211;DHT22;65003;49.518;11.280;2023-05-07T00:19:45;12.80;89.30
76211;DHT22;65003;49.518;11.280;2023-05-07T00:22:12;13.20;89.70
76211;DHT22;65003;49.518;11.280;2023-05-07T00:24:38;13.20;89.60
76211;DHT22;65003;49.518;11.280;2023-05-07T00:27:05;13.20;89.60
76211;DHT22;65003;49.518;11.280;2023-05-07T00:29:32;13.20;89.60
76211;DHT22;65003;49.518;11.280;2023-05-07T00:31:58;13.20;89.40
76211;DHT22;65003;49.518;11.280;2023-05-07T00:34:25;13.30;89.30
76211;DHT22;65003;49.518;11.280;2023-05-07T00:36:51;13.30;89.50
76211;DHT22;65003;49.518;11.280;2023-05-07T00:39:18;13.30;88.90
76211;DHT22;65003;49.518;11.280;2023-05-07T00:41:45;13.30;88.90
76211;DHT22;65003;49.518;11.280;2023-05-07T00:44:11;13.40;89.10
76211;DHT22;65003;49.518;11.280;2023-05-07T00:46:38;13.20;88.80
76211;DHT22;65003;49.518;11.280;2023-05-07T00:49:05;13.40;88.80
76211;DHT22;65003;49.518;11.280;2023-05-07T00:51:31;13.40;88.80
76211;DHT22;65003;49.518;11.280;2023-05-07T00:53:59;13.40;89.00
76211;DHT22;65003;49.518;11.280;2023-05-07T00:56:24;13.40;88.60
76211;DHT22;65003;49.518;11.280;2023-05-07T00:58:51;13.40;88.60
76211;DHT22;65003;49.518;11.280;2023-05-07T01:01:18;13.50;88.30
76211;DHT22;65003;49.518;11.280;2023-05-07T01:03:44;13.50;88.10
76211;DHT22;65003;49.518;11.280;2023-05-07T01:06:11;13.50;88.20
76211;DHT22;65003;49.518;11.280;2023-05-07T01:08:37;13.50;88.20
76211;DHT22;65003;49.518;11.280;2023-05-07T01:11:04;13.40;88.20
76211;DHT22;65003;49.518;11.280;2023-05-07T01:13:31;13.30;88.60
76211;DHT22;65003;49.518;11.280;2023-05-07T01:15:57;13.30;88.80
76211;DHT22;65003;49.518;11.280;2023-05-07T01:18:24;13.30;88.80
76211;DHT22;65003;49.518;11.280;2023-05-07T01:20:51;13.20;88.90
76211;DHT22;65003;49.518;11.280;2023-05-07T01:23:17;13.20;89.20
76211;DHT22;65003;49.518;11.280;2023-05-07T01:25:50;13.20;89.20
76211;DHT22;65003;49.518;11.280;2023-05-07T01:28:10;13.20;89.30
76211;DHT22;65003;49.518;11.280;2023-05-07T01:30:37;13.20;89.20
76211;DHT22;65003;49.518;11.280;2023-05-07T01:33:04;13.20;89.20
76211;DHT22;65003;49.518;11.280;2023-05-07T01:35:32;13.20;89.10
76211;DHT22;65003;49.518;11.280;2023-05-07T01:37:57;13.20;89.10
76211;DHT22;65003;49.518;11.280;2023-05-07T01:40:24;13.20;88.90
76211;DHT22;65003;49.518;11.280;2023-05-07T01:42:51;13.20;89.00
76211;DHT22;65003;49.518;11.280;2023-05-07T01:45:17;13.20;89.20
76211;DHT22;65003;49.518;11.280;2023-05-07T01:47:44;13.20;89.00
76211;DHT22;65003;49.518;11.280;2023-05-07T01:50:11;13.20;88.80
76211;DHT22;65003;49.518;11.280;2023-05-07T01:52:38;13.30;88.70
76211;DHT22;65003;49.518;11.280;2023-05-07T01:55:06;13.30;88.70
76211;DHT22;65003;49.518;11.280;2023-05-07T01:57:33;13.30;88.60
76211;DHT22;65003;49.518;11.280;2023-05-07T01:59:59;13.30;88.80
76211;DHT22;65003;49.518;11.280;2023-05-07T02:02:26;13.40;88.50
76211;DHT22;65003;49.518;11.280;2023-05-07T02:04:52;15.20;89.90
76211;DHT22;65003;49.518;11.280;2023-05-07T02:07:19;13.30;88.70
76211;DHT22;65003;49.518;11.280;2023-05-07T02:09:46;13.30;89.00
76211;DHT22;65003;49.518;11.280;2023-05-07T02:12:12;13.20;89.00
76211;DHT22;65003;49.518;11.280;2023-05-07T02:14:39;13.20;89.00
76211;DHT22;65003;49.518;11.280;2023-05-07T02:17:05;13.20;89.20
76211;DHT22;65003;49.518;11.280;2023-05-07T02:19:32;13.20;89.20
76211;DHT22;65003;49.518;11.280;2023-05-07T02:21:58;13.20;89.20
76211;DHT22;65003;49.518;11.280;2023-05-07T02:24:25;13.20;89.40
76211;DHT22;65003;49.518;11.280;2023-05-07T02:26:52;13.30;89.40
76211;DHT22;65003;49.518;11.280;2023-05-07T02:29:18;13.30;89.30
76211;DHT22;65003;49.518;11.280;2023-05-07T02:31:45;13.30;89.40
76211;DHT22;65003;49.518;11.280;2023-05-07T02:34:12;13.30;89.10
76211;DHT22;65003;49.518;11.280;2023-05-07T02:36:38;13.30;89.00
76211;DHT22;65003;49.518;11.280;2023-05-07T02:39:05;13.40;88.80
76211;DHT22;65003;49.518;11.280;2023-05-07T02:41:32;13.50;88.50
76211;DHT22;65003;49.518;11.280;2023-05-07T02:43:58;13.40;88.60
76211;DHT22;65003;49.518;11.280;2023-05-07T02:46:25;13.40;88.90
76211;DHT22;65003;49.518;11.280;2023-05-07T02:48:51;13.40;89.00
76211;DHT22;65003;49.518;11.280;2023-05-07T02:51:19;13.40;89.10
76211;DHT22;65003;49.518;11.280;2023-05-07T02:53:45;13.40;88.80
76211;DHT22;65003;49.518;11.280;2023-05-07T02:56:11;13.40;88.90
76211;DHT22;65003;49.518;11.280;2023-05-07T02:58:38;13.30;89.10
76211;DHT22;65003;49.518;11.280;2023-05-07T03:01:06;13.30;89.50
76211;DHT22;65003;49.518;11.280;2023-05-07T03:03:32;13.20;89.60
76211;DHT22;65003;49.518;11.280;2023-05-07T03:05:59;13.20;89.60
76211;DHT22;65003;49.518;11.280;2023-05-07T03:08:25;13.10;89.90
76211;DHT22;65003;49.518;11.280;2023-05-07T03:10:52;13.00;90.00
76211;DHT22;65003;49.518;11.280;2023-05-07T03:13:18;13.00;90.10
76211;DHT22;65003;49.518;11.280;2023-05-07T03:15:45;12.90;90.30
76211;DHT22;65003;49.518;11.280;2023-05-07T03:18:12;12.90;90.40
76211;DHT22;65003;49.518;11.280;2023-05-07T03:20:38;13.00;90.30
76211;DHT22;65003;49.518;11.280;2023-05-07T03:23:05;12.90;90.20
76211;DHT22;65003;49.518;11.280;2023-05-07T03:25:32;12.90;90.40
76211;DHT22;65003;49.518;11.280;2023-05-07T03:27:58;12.80;90.40
76211;DHT22;65003;49.518;11.280;2023-05-07T03:30:24;12.70;90.60
76211;DHT22;65003;49.518;11.280;2023-05-07T03:32:51;12.70;90.80
76211;DHT22;65003;49.518;11.280;2023-05-07T03:35:18;12.70;90.80
76211;DHT22;65003;49.518;11.280;2023-05-07T03:37:44;12.60;90.90
76211;DHT22;65003;49.518;11.280;2023-05-07T03:40:11;12.60;90.90
76211;DHT22;65003;49.518;11.280;2023-05-07T03:42:38;12.50;91.00
76211;DHT22;65003;49.518;11.280;2023-05-07T03:45:05;12.50;91.10
76211;DHT22;65003;49.518;11.280;2023-05-07T03:47:32;12.50;91.10
76211;DHT22;65003;49.518;11.280;2023-05-07T03:49:58;12.50;91.20
76211;DHT22;65003;49.518;11.280;2023-05-07T03:52:25;12.50;91.20
76211;DHT22;65003;49.518;11.280;2023-05-07T03:54:52;12.40;91.20
76211;DHT22;65003;49.518;11.280;2023-05-07T03:57:18;12.40;91.20
76211;DHT22;65003;49.518;11.280;2023-05-07T03:59:45;12.40;91.30
76211;DHT22;65003;49.518;11.280;2023-05-07T04:02:11;12.50;91.50
76211;DHT22;65003;49.518;11.280;2023-05-07T04:04:38;12.50;91.20
76211;DHT22;65003;49.518;11.280;2023-05-07T04:07:05;12.40;91.20
76211;DHT22;65003;49.518;11.280;2023-05-07T04:09:31;12.40;91.30
76211;DHT22;65003;49.518;11.280;2023-05-07T04:11:58;12.50;91.30
76211;DHT22;65003;49.518;11.280;2023-05-07T04:14:24;12.50;91.00
76211;DHT22;65003;49.518;11.280;2023-05-07T04:16:51;12.60;91.00
76211;DHT22;65003;49.518;11.280;2023-05-07T04:19:18;12.60;90.90
76211;DHT22;65003;49.518;11.280;2023-05-07T04:21:44;12.70;90.80
76211;DHT22;65003;49.518;11.280;2023-05-07T04:24:11;12.70;90.80
76211;DHT22;65003;49.518;11.280;2023-05-07T04:26:38;12.70;90.90
76211;DHT22;65003;49.518;11.280;2023-05-07T04:29:04;12.70;90.80
76211;DHT22;65003;49.518;11.280;2023-05-07T04:31:31;12.70;90.90
76211;DHT22;65003;49.518;11.280;2023-05-07T04:33:57;12.70;91.00
76211;DHT22;65003;49.518;11.280;2023-05-07T04:36:24;12.70;90.90
76211;DHT22;65003;49.518;11.280;2023-05-07T04:38:51;12.80;90.90
76211;DHT22;65003;49.518;11.280;2023-05-07T04:41:18;12.80;90.80
76211;DHT22;65003;49.518;11.280;2023-05-07T04:43:44;12.90;90.60
76211;DHT22;65003;49.518;11.280;2023-05-07T04:46:11;12.90;90.70
76211;DHT22;65003;49.518;11.280;2023-05-07T04:48:37;13.00;90.50
76211;DHT22;65003;49.518;11.280;2023-05-07T04:51:04;13.10;90.30
76211;DHT22;65003;49.518;11.280;2023-05-07T04:53:31;13.10;90.30
76211;DHT22;65003;49.518;11.280;2023-05-07T04:55:57;13.30;90.20
76211;DHT22;65003;49.518;11.280;2023-05-07T04:58:24;13.30;90.40
76211;DHT22;65003;49.518;11.280;2023-05-07T05:00:50;13.50;89.80
76211;DHT22;65003;49.518;11.280;2023-05-07T05:03:17;13.70;88.70
76211;DHT22;65003;49.518;11.280;2023-05-07T05:05:44;13.90;88.50
76211;DHT22;65003;49.518;11.280;2023-05-07T05:08:10;14.20;87.20
76211;DHT22;65003;49.518;11.280;2023-05-07T05:10:37;14.50;86.20
76211;DHT22;65003;49.518;11.280;2023-05-07T05:13:03;14.90;85.30
76211;DHT22;65003;49.518;11.280;2023-05-07T05:15:30;15.30;83.90
76211;DHT22;65003;49.518;11.280;2023-05-07T05:17:57;15.50;81.70
76211;DHT22;65003;49.518;11.280;2023-05-07T05:20:23;15.60;81.30
76211;DHT22;65003;49.518;11.280;2023-05-07T05:22:50;15.70;81.40
76211;DHT22;65003;49.518;11.280;2023-05-07T05:25:16;15.80;81.00
76211;DHT22;65003;49.518;11.280;2023-05-07T05:27:43;15.90;80.30
76211;DHT22;65003;49.518;11.280;2023-05-07T05:30:10;16.10;79.50
76211;DHT22;65003;49.518;11.280;2023-05-07T05:32:37;16.10;78.70
76211;DHT22;65003;49.518;11.280;2023-05-07T05:35:04;16.20;77.90
76211;DHT22;65003;49.518;11.280;2023-05-07T05:37:31;16.40;77.00
76211;DHT22;65003;49.518;11.280;2023-05-07T05:39:57;16.50;76.30
76211;DHT22;65003;49.518;11.280;2023-05-07T05:42:24;16.50;76.90
76211;DHT22;65003;49.518;11.280;2023-05-07T05:44:50;16.70;76.50
76211;DHT22;65003;49.518;11.280;2023-05-07T05:47:17;17.10;75.80
76211;DHT22;65003;49.518;11.280;2023-05-07T05:49:44;17.50;74.20
76211;DHT22;65003;49.518;11.280;2023-05-07T05:52:11;17.90;71.70
76211;DHT22;65003;49.518;11.280;2023-05-07T05:54:37;18.20;70.70
76211;DHT22;65003;49.518;11.280;2023-05-07T05:57:04;18.60;68.60
76211;DHT22;65003;49.518;11.280;2023-05-07T05:59:30;18.80;67.30
76211;DHT22;65003;49.518;11.280;2023-05-07T06:01:57;18.90;67.50
76211;DHT22;65003;49.518;11.280;2023-05-07T06:04:23;19.00;66.10
76211;DHT22;65003;49.518;11.280;2023-05-07T06:06:50;18.60;67.10
76211;DHT22;65003;49.518;11.280;2023-05-07T06:09:16;18.40;68.30
76211;DHT22;65003;49.518;11.280;2023-05-07T06:11:43;18.00;68.90
76211;DHT22;65003;49.518;11.280;2023-05-07T06:14:09;17.70;70.10
76211;DHT22;65003;49.518;11.280;2023-05-07T06:16:36;17.40;71.20
76211;DHT22;65003;49.518;11.280;2023-05-07T06:19:03;17.60;71.80
76211;DHT22;65003;49.518;11.280;2023-05-07T06:21:29;17.80;70.60
76211;DHT22;65003;49.518;11.280;2023-05-07T06:23:56;17.80;70.30
76211;DHT22;65003;49.518;11.280;2023-05-07T06:26:23;17.70;70.70
76211;DHT22;65003;49.518;11.280;2023-05-07T06:28:49;17.50;71.40
76211;DHT22;65003;49.518;11.280;2023-05-07T06:31:17;17.50;71.70
76211;DHT22;65003;49.518;11.280;2023-05-07T06:33:43;17.50;72.00
76211;DHT22;65003;49.518;11.280;2023-05-07T06:36:09;17.60;71.80
76211;DHT22;65003;49.518;11.280;2023-05-07T06:38:36;17.70;71.40
76211;DHT22;65003;49.518;11.280;2023-05-07T06:41:02;17.80;71.00
76211;DHT22;65003;49.518;11.280;2023-05-07T06:43:29;17.90;70.50
76211;DHT22;65003;49.518;11.280;2023-05-07T06:45:55;18.10;70.00
76211;DHT22;65003;49.518;11.280;2023-05-07T06:48:22;17.90;70.20
76211;DHT22;65003;49.518;11.280;2023-05-07T06:50:49;17.80;71.10
76211;DHT22;65003;49.518;11.280;2023-05-07T06:53:15;17.50;71.80
76211;DHT22;65003;49.518;11.280;2023-05-07T06:55:42;17.40;73.20
76211;DHT22;65003;49.518;11.280;2023-05-07T06:58:08;17.30;73.10
76211;DHT22;65003;49.518;11.280;2023-05-07T07:00:35;17.30;73.00
76211;DHT22;65003;49.518;11.280;2023-05-07T07:03:02;17.20;73.20
76211;DHT22;65003;49.518;11.280;2023-05-07T07:05:28;17.00;73.80
76211;DHT22;65003;49.518;11.280;2023-05-07T07:07:55;16.80;74.40
76211;DHT22;65003;49.518;11.280;2023-05-07T07:10:21;16.80;75.50
76211;DHT22;65003;49.518;11.280;2023-05-07T07:12:48;17.00;74.90
76211;DHT22;65003;49.518;11.280;2023-05-07T07:15:15;17.30;74.00
76211;DHT22;65003;49.518;11.280;2023-05-07T07:17:41;17.30;73.40
76211;DHT22;65003;49.518;11.280;2023-05-07T07:20:08;17.60;72.20
76211;DHT22;65003;49.518;11.280;2023-05-07T07:22:35;17.70;71.90
76211;DHT22;65003;49.518;11.280;2023-05-07T07:25:02;17.80;71.60
76211;DHT22;65003;49.518;11.280;2023-05-07T07:27:28;18.60;69.40
76211;DHT22;65003;49.518;11.280;2023-05-07T07:29:55;20.20;64.70
76211;DHT22;65003;49.518;11.280;2023-05-07T07:32:21;21.50;60.00
76211;DHT22;65003;49.518;11.280;2023-05-07T07:34:48;22.30;57.10
76211;DHT22;65003;49.518;11.280;2023-05-07T07:37:14;22.80;55.60
76211;DHT22;65003;49.518;11.280;2023-05-07T07:39:41;22.40;55.50
76211;DHT22;65003;49.518;11.280;2023-05-07T07:42:08;21.80;56.90
76211;DHT22;65003;49.518;11.280;2023-05-07T07:44:34;21.80;58.10
76211;DHT22;65003;49.518;11.280;2023-05-07T07:47:01;22.40;56.20
76211;DHT22;65003;49.518;11.280;2023-05-07T07:49:28;23.90;52.50
76211;DHT22;65003;49.518;11.280;2023-05-07T07:51:54;25.70;48.70
76211;DHT22;65003;49.518;11.280;2023-05-07T07:54:21;27.90;43.30
76211;DHT22;65003;49.518;11.280;2023-05-07T07:56:47;30.20;39.20
76211;DHT22;65003;49.518;11.280;2023-05-07T07:59:14;32.20;34.80
76211;DHT22;65003;49.518;11.280;2023-05-07T08:01:41;32.60;32.50
76211;DHT22;65003;49.518;11.280;2023-05-07T08:04:07;31.50;33.40
76211;DHT22;65003;49.518;11.280;2023-05-07T08:06:34;30.30;34.80
76211;DHT22;65003;49.518;11.280;2023-05-07T08:09:00;29.00;37.00
76211;DHT22;65003;49.518;11.280;2023-05-07T08:11:27;29.00;38.00
76211;DHT22;65003;49.518;11.280;2023-05-07T08:13:54;29.10;37.50
76211;DHT22;65003;49.518;11.280;2023-05-07T08:16:20;27.90;38.80
76211;DHT22;65003;49.518;11.280;2023-05-07T08:18:47;26.50;42.00
76211;DHT22;65003;49.518;11.280;2023-05-07T08:21:13;25.20;44.50
76211;DHT22;65003;49.518;11.280;2023-05-07T08:23:40;24.50;47.50
76211;DHT22;65003;49.518;11.280;2023-05-07T08:26:08;23.90;48.10
76211;DHT22;65003;49.518;11.280;2023-05-07T08:28:34;23.20;50.30
76211;DHT22;65003;49.518;11.280;2023-05-07T08:31:00;22.70;51.50
76211;DHT22;65003;49.518;11.280;2023-05-07T08:33:27;22.10;53.10
76211;DHT22;65003;49.518;11.280;2023-05-07T08:35:53;21.60;54.70
76211;DHT22;65003;49.518;11.280;2023-05-07T08:38:20;21.20;56.70
76211;DHT22;65003;49.518;11.280;2023-05-07T08:40:47;21.00;58.20
76211;DHT22;65003;49.518;11.280;2023-05-07T08:43:14;20.80;59.00
76211;DHT22;65003;49.518;11.280;2023-05-07T08:45:40;20.70;59.40
76211;DHT22;65003;49.518;11.280;2023-05-07T08:48:10;20.60;61.50
76211;DHT22;65003;49.518;11.280;2023-05-07T08:50:36;20.60;62.30
76211;DHT22;65003;49.518;11.280;2023-05-07T08:53:03;20.70;62.40
76211;DHT22;65003;49.518;11.280;2023-05-07T08:55:29;20.90;62.00
76211;DHT22;65003;49.518;11.280;2023-05-07T08:57:56;21.20;60.60
76211;DHT22;65003;49.518;11.280;2023-05-07T09:00:22;21.60;60.00
76211;DHT22;65003;49.518;11.280;2023-05-07T09:02:49;22.80;57.20
76211;DHT22;65003;49.518;11.280;2023-05-07T09:05:16;25.10;50.30
76211;DHT22;65003;49.518;11.280;2023-05-07T09:07:42;28.40;43.70
76211;DHT22;65003;49.518;11.280;2023-05-07T09:10:09;31.70;37.40
76211;DHT22;65003;49.518;11.280;2023-05-07T09:12:35;34.70;31.80
76211;DHT22;65003;49.518;11.280;2023-05-07T09:15:02;36.00;29.10
76211;DHT22;65003;49.518;11.280;2023-05-07T09:17:29;35.60;28.70
76211;DHT22;65003;49.518;11.280;2023-05-07T09:19:55;34.70;29.50
76211;DHT22;65003;49.518;11.280;2023-05-07T09:22:22;34.60;29.70
76211;DHT22;65003;49.518;11.280;2023-05-07T09:24:49;35.40;28.70
76211;DHT22;65003;49.518;11.280;2023-05-07T09:27:15;36.90;28.20
76211;DHT22;65003;49.518;11.280;2023-05-07T09:29:42;38.30;26.20
76211;DHT22;65003;49.518;11.280;2023-05-07T09:32:08;39.10;25.80
76211;DHT22;65003;49.518;11.280;2023-05-07T09:34:35;38.50;25.70
76211;DHT22;65003;49.518;11.280;2023-05-07T09:37:02;37.90;25.70
76211;DHT22;65003;49.518;11.280;2023-05-07T09:39:41;37.10;26.60
76211;DHT22;65003;49.518;11.280;2023-05-07T09:42:07;36.70;26.80
76211;DHT22;65003;49.518;11.280;2023-05-07T09:44:34;37.40;26.50
76211;DHT22;65003;49.518;11.280;2023-05-07T09:47:00;38.40;25.60
76211;DHT22;65003;49.518;11.280;2023-05-07T09:49:28;40.30;23.80
76211;DHT22;65003;49.518;11.280;2023-05-07T09:51:53;40.90;23.40
76211;DHT22;65003;49.518;11.280;2023-05-07T09:54:20;40.50;23.10
76211;DHT22;65003;49.518;11.280;2023-05-07T09:56:48;40.20;23.90
76211;DHT22;65003;49.518;11.280;2023-05-07T09:59:14;40.40;23.60
76211;DHT22;65003;49.518;11.280;2023-05-07T10:01:40;39.20;23.80
76211;DHT22;65003;49.518;11.280;2023-05-07T10:04:06;36.70;26.10
76211;DHT22;65003;49.518;11.280;2023-05-07T10:06:33;34.90;28.20
76211;DHT22;65003;49.518;11.280;2023-05-07T10:08:59;33.20;29.00
76211;DHT22;65003;49.518;11.280;2023-05-07T10:11:26;32.50;30.40
76211;DHT22;65003;49.518;11.280;2023-05-07T10:13:53;30.70;32.50
76211;DHT22;65003;49.518;11.280;2023-05-07T10:16:20;28.90;36.00
76211;DHT22;65003;49.518;11.280;2023-05-07T10:18:46;27.60;38.80
76211;DHT22;65003;49.518;11.280;2023-05-07T10:21:18;27.00;40.30
76211;DHT22;65003;49.518;11.280;2023-05-07T10:23:45;26.40;41.80
76211;DHT22;65003;49.518;11.280;2023-05-07T10:26:11;26.20;41.70
76211;DHT22;65003;49.518;11.280;2023-05-07T10:28:38;26.30;42.10
76211;DHT22;65003;49.518;11.280;2023-05-07T10:31:33;26.10;41.90
76211;DHT22;65003;49.518;11.280;2023-05-07T10:33:53;25.60;43.70
76211;DHT22;65003;49.518;11.280;2023-05-07T10:36:20;25.20;42.50
76211;DHT22;65003;49.518;11.280;2023-05-07T10:38:47;25.20;42.70
76211;DHT22;65003;49.518;11.280;2023-05-07T10:41:13;25.00;42.30
76211;DHT22;65003;49.518;11.280;2023-05-07T10:43:40;25.00;43.30
76211;DHT22;65003;49.518;11.280;2023-05-07T10:46:10;25.10;43.30
76211;DHT22;65003;49.518;11.280;2023-05-07T10:49:06;25.50;42.10
76211;DHT22;65003;49.518;11.280;2023-05-07T10:53:41;25.80;42.70
76211;DHT22;65003;49.518;11.280;2023-05-07T10:56:24;26.10;42.70
76211;DHT22;65003;49.518;11.280;2023-05-07T10:58:51;26.30;41.90
76211;DHT22;65003;49.518;11.280;2023-05-07T11:04:15;27.30;39.40
76211;DHT22;65003;49.518;11.280;2023-05-07T11:06:41;26.70;39.30
76211;DHT22;65003;49.518;11.280;2023-05-07T11:09:08;26.50;41.20
76211;DHT22;65003;49.518;11.280;2023-05-07T11:11:44;26.70;41.10
76211;DHT22;65003;49.518;11.280;2023-05-07T11:14:10;27.10;41.10
76211;DHT22;65003;49.518;11.280;2023-05-07T11:16:36;27.20;39.70
76211;DHT22;65003;49.518;11.280;2023-05-07T11:19:03;27.20;39.40
76211;DHT22;65003;49.518;11.280;2023-05-07T11:21:32;27.00;40.00
76211;DHT22;65003;49.518;11.280;2023-05-07T11:23:58;27.00;40.60
76211;DHT22;65003;49.518;11.280;2023-05-07T11:26:25;26.70;40.40
76211;DHT22;65003;49.518;11.280;2023-05-07T11:28:51;26.50;40.40
76211;DHT22;65003;49.518;11.280;2023-05-07T11:31:22;26.20;40.00
76211;DHT22;65003;49.518;11.280;2023-05-07T11:33:47;26.20;40.60
76211;DHT22;65003;49.518;11.280;2023-05-07T11:36:14;26.30;40.20
76211;DHT22;65003;49.518;11.280;2023-05-07T11:38:41;26.50;40.50
76211;DHT22;65003;49.518;11.280;2023-05-07T11:41:07;26.60;40.20
76211;DHT22;65003;49.518;11.280;2023-05-07T11:43:34;26.40;40.00
76211;DHT22;65003;49.518;11.280;2023-05-07T11:46:07;26.40;39.50
76211;DHT22;65003;49.518;11.280;2023-05-07T11:48:32;26.50;39.40
76211;DHT22;65003;49.518;11.280;2023-05-07T11:51:03;26.20;40.20
76211;DHT22;65003;49.518;11.280;2023-05-07T11:53:36;25.90;40.00
76211;DHT22;65003;49.518;11.280;2023-05-07T11:56:11;25.70;39.00
76211;DHT22;65003;49.518;11.280;2023-05-07T11:58:37;25.50;40.30
76211;DHT22;65003;49.518;11.280;2023-05-07T12:01:03;25.40;40.00
76211;DHT22;65003;49.518;11.280;2023-05-07T12:03:31;25.40;40.10
76211;DHT22;65003;49.518;11.280;2023-05-07T12:05:57;25.50;39.20
76211;DHT22;65003;49.518;11.280;2023-05-07T12:08:24;25.60;39.40
76211;DHT22;65003;49.518;11.280;2023-05-07T12:10:51;25.80;38.40
76211;DHT22;65003;49.518;11.280;2023-05-07T12:13:18;25.80;38.60
76211;DHT22;65003;49.518;11.280;2023-05-07T12:15:44;25.60;39.50
76211;DHT22;65003;49.518;11.280;2023-05-07T12:18:11;25.50;39.50
76211;DHT22;65003;49.518;11.280;2023-05-07T12:20:38;25.50;40.10
76211;DHT22;65003;49.518;11.280;2023-05-07T12:23:05;25.30;40.40
76211;DHT22;65003;49.518;11.280;2023-05-07T12:25:34;25.10;42.00
76211;DHT22;65003;49.518;11.280;2023-05-07T12:28:00;25.00;42.90
76211;DHT22;65003;49.518;11.280;2023-05-07T12:30:25;25.00;42.00
76211;DHT22;65003;49.518;11.280;2023-05-07T12:32:53;24.80;43.60
76211;DHT22;65003;49.518;11.280;2023-05-07T12:35:30;24.90;43.50
76211;DHT22;65003;49.518;11.280;2023-05-07T12:37:57;24.80;43.70
76211;DHT22;65003;49.518;11.280;2023-05-07T12:40:23;24.70;44.30
76211;DHT22;65003;49.518;11.280;2023-05-07T12:42:52;24.80;43.90
76211;DHT22;65003;49.518;11.280;2023-05-07T12:45:17;25.00;43.00
76211;DHT22;65003;49.518;11.280;2023-05-07T12:47:45;25.00;43.30
76211;DHT22;65003;49.518;11.280;2023-05-07T12:50:11;24.90;42.60
76211;DHT22;65003;49.518;11.280;2023-05-07T12:52:37;24.80;42.20
76211;DHT22;65003;49.518;11.280;2023-05-07T12:55:05;24.80;42.80
76211;DHT22;65003;49.518;11.280;2023-05-07T12:57:31;24.60;42.70
76211;DHT22;65003;49.518;11.280;2023-05-07T12:59:57;24.70;42.80
76211;DHT22;65003;49.518;11.280;2023-05-07T13:02:31;24.70;44.10
76211;DHT22;65003;49.518;11.280;2023-05-07T13:04:51;24.60;43.90
76211;DHT22;65003;49.518;11.280;2023-05-07T13:07:17;24.50;43.80
76211;DHT22;65003;49.518;11.280;2023-05-07T13:09:44;24.30;43.90
76211;DHT22;65003;49.518;11.280;2023-05-07T13:12:11;24.10;44.20
76211;DHT22;65003;49.518;11.280;2023-05-07T13:14:37;24.10;44.00
76211;DHT22;65003;49.518;11.280;2023-05-07T13:17:04;24.10;44.80
76211;DHT22;65003;49.518;11.280;2023-05-07T13:19:30;24.10;45.40
76211;DHT22;65003;49.518;11.280;2023-05-07T13:21:57;24.10;44.60
76211;DHT22;65003;49.518;11.280;2023-05-07T13:24:24;24.10;45.10
76211;DHT22;65003;49.518;11.280;2023-05-07T13:26:50;23.90;44.60
76211;DHT22;65003;49.518;11.280;2023-05-07T13:29:17;23.90;45.30
76211;DHT22;65003;49.518;11.280;2023-05-07T13:31:44;24.00;46.00
76211;DHT22;65003;49.518;11.280;2023-05-07T13:34:10;24.20;45.10
76211;DHT22;65003;49.518;11.280;2023-05-07T13:36:37;24.20;44.70
76211;DHT22;65003;49.518;11.280;2023-05-07T13:39:03;23.90;45.00
76211;DHT22;65003;49.518;11.280;2023-05-07T13:41:30;23.50;45.40
76211;DHT22;65003;49.518;11.280;2023-05-07T13:43:57;23.50;46.80
76211;DHT22;65003;49.518;11.280;2023-05-07T13:46:23;23.50;46.60
76211;DHT22;65003;49.518;11.280;2023-05-07T13:48:50;23.50;45.70
76211;DHT22;65003;49.518;11.280;2023-05-07T13:51:16;23.40;46.50
76211;DHT22;65003;49.518;11.280;2023-05-07T13:53:43;23.30;47.00
76211;DHT22;65003;49.518;11.280;2023-05-07T13:56:09;23.40;48.20
76211;DHT22;65003;49.518;11.280;2023-05-07T13:58:36;23.40;47.00
76211;DHT22;65003;49.518;11.280;2023-05-07T14:01:03;23.40;47.50
76211;DHT22;65003;49.518;11.280;2023-05-07T14:03:29;23.30;47.00
76211;DHT22;65003;49.518;11.280;2023-05-07T14:05:56;23.10;48.00
76211;DHT22;65003;49.518;11.280;2023-05-07T14:08:23;23.10;48.60
76211;DHT22;65003;49.518;11.280;2023-05-07T14:10:49;23.10;47.80
76211;DHT22;65003;49.518;11.280;2023-05-07T14:13:16;23.20;47.40
76211;DHT22;65003;49.518;11.280;2023-05-07T14:15:42;23.20;47.30
76211;DHT22;65003;49.518;11.280;2023-05-07T14:18:09;23.30;47.40
76211;DHT22;65003;49.518;11.280;2023-05-07T14:20:35;23.50;47.90
76211;DHT22;65003;49.518;11.280;2023-05-07T14:23:02;23.50;46.40
76211;DHT22;65003;49.518;11.280;2023-05-07T14:25:29;23.70;45.90
76211;DHT22;65003;49.518;11.280;2023-05-07T14:27:55;23.70;46.00
76211;DHT22;65003;49.518;11.280;2023-05-07T14:30:22;23.50;46.30
76211;DHT22;65003;49.518;11.280;2023-05-07T14:32:49;23.30;46.90
76211;DHT22;65003;49.518;11.280;2023-05-07T14:35:15;23.10;46.50
76211;DHT22;65003;49.518;11.280;2023-05-07T14:37:42;23.00;46.60
76211;DHT22;65003;49.518;11.280;2023-05-07T14:40:09;22.80;47.30
76211;DHT22;65003;49.518;11.280;2023-05-07T14:42:35;22.60;47.70
76211;DHT22;65003;49.518;11.280;2023-05-07T14:45:02;22.60;47.70
76211;DHT22;65003;49.518;11.280;2023-05-07T14:47:29;22.60;47.70
76211;DHT22;65003;49.518;11.280;2023-05-07T14:49:56;22.60;47.30
76211;DHT22;65003;49.518;11.280;2023-05-07T14:52:22;22.60;47.30
76211;DHT22;65003;49.518;11.280;2023-05-07T14:54:49;22.70;48.30
76211;DHT22;65003;49.518;11.280;2023-05-07T14:57:16;22.80;48.00
76211;DHT22;65003;49.518;11.280;2023-05-07T14:59:42;22.90;47.90
76211;DHT22;65003;49.518;11.280;2023-05-07T15:02:09;22.00;46.80
76211;DHT22;65003;49.518;11.280;2023-05-07T15:04:35;22.80;47.10
76211;DHT22;65003;49.518;11.280;2023-05-07T15:07:02;22.90;47.10
76211;DHT22;65003;49.518;11.280;2023-05-07T15:09:28;22.90;46.80
76211;DHT22;65003;49.518;11.280;2023-05-07T15:11:55;22.90;46.20
76211;DHT22;65003;49.518;11.280;2023-05-07T15:14:22;22.90;46.00
76211;DHT22;65003;49.518;11.280;2023-05-07T15:16:48;22.80;46.60